sensor_id;sensor_type;location;lat;lon;timestamp;P1;durP1;ratioP1;P2;durP2;ratioP2
51459;SDS011;37534;39.772;2.718;2022-11-15T00:01:42;7.82;;;4.28;;
51459;SDS011;37534;39.772;2.718;2022-11-15T00:04:07;7.93;;;3.25;;
51459;SDS011;37534;39.772;2.718;2022-11-15T00:06:35;6.53;;;3.97;;
51459;SDS011;37534;39.772;2.718;2022-11-15T00:09:01;8.00;;;3.15;;
51459;SDS011;37534;39.772;2.718;2022-11-15T00:11:27;8.95;;;4.03;;
51459;SDS011;37534;39.772;2.718;2022-11-15T00:13:56;7.22;;;4.05;;
51459;SDS011;37534;39.772;2.718;2022-11-15T00:16:23;7.28;;;3.65;;
51459;SDS011;37534;39.772;2.718;2022-11-15T00:18:49;9.00;;;3.58;;
51459;SDS011;37534;39.772;2.718;2022-11-15T00:21:16;9.15;;;3.97;;
51459;SDS011;37534;39.772;2.718;2022-11-15T00:23:43;11.13;;;3.67;;
51459;SDS011;37534;39.772;2.718;2022-11-15T00:26:12;10.18;;;4.18;;
51459;SDS011;37534;39.772;2.718;2022-11-15T00:28:39;12.15;;;4.20;;
51459;SDS011;37534;39.772;2.718;2022-11-15T00:31:06;14.95;;;3.80;;
51459;SDS011;37534;39.772;2.718;2022-11-15T00:33:33;15.23;;;4.65;;
51459;SDS011;37534;39.772;2.718;2022-11-15T00:36:02;6.72;;;3.85;;
51459;SDS011;37534;39.772;2.718;2022-11-15T00:38:30;16.23;;;5.07;;
51459;SDS011;37534;39.772;2.718;2022-11-15T00:40:59;9.63;;;3.70;;
51459;SDS011;37534;39.772;2.718;2022-11-15T00:43:25;26.05;;;4.57;;
51459;SDS011;37534;39.772;2.718;2022-11-15T00:45:51;9.80;;;4.13;;
51459;SDS011;37534;39.772;2.718;2022-11-15T00:48:17;8.68;;;5.15;;
51459;SDS011;37534;39.772;2.718;2022-11-15T00:50:42;11.48;;;4.53;;
51459;SDS011;37534;39.772;2.718;2022-11-15T00:53:08;13.68;;;4.28;;
51459;SDS011;37534;39.772;2.718;2022-11-15T00:55:34;6.00;;;3.47;;
51459;SDS011;37534;39.772;2.718;2022-11-15T00:57:59;11.05;;;4.13;;
51459;SDS011;37534;39.772;2.718;2022-11-15T01:00:25;20.63;;;4.45;;
51459;SDS011;37534;39.772;2.718;2022-11-15T01:02:50;14.68;;;5.13;;
51459;SDS011;37534;39.772;2.718;2022-11-15T01:05:16;7.65;;;4.00;;
51459;SDS011;37534;39.772;2.718;2022-11-15T01:07:41;11.10;;;4.28;;
51459;SDS011;37534;39.772;2.718;2022-11-15T01:10:07;10.88;;;4.38;;
51459;SDS011;37534;39.772;2.718;2022-11-15T01:12:33;7.70;;;3.45;;
51459;SDS011;37534;39.772;2.718;2022-11-15T01:14:59;5.72;;;3.72;;
51459;SDS011;37534;39.772;2.718;2022-11-15T01:17:24;26.40;;;4.63;;
51459;SDS011;37534;39.772;2.718;2022-11-15T01:19:50;7.70;;;3.67;;
51459;SDS011;37534;39.772;2.718;2022-11-15T01:22:16;7.35;;;3.60;;
51459;SDS011;37534;39.772;2.718;2022-11-15T01:24:41;8.52;;;3.25;;
51459;SDS011;37534;39.772;2.718;2022-11-15T01:27:07;7.22;;;3.33;;
51459;SDS011;37534;39.772;2.718;2022-11-15T01:29:33;14.48;;;3.95;;
51459;SDS011;37534;39.772;2.718;2022-11-15T01:31:59;7.20;;;3.55;;
51459;SDS011;37534;39.772;2.718;2022-11-15T01:34:24;17.33;;;4.05;;
51459;SDS011;37534;39.772;2.718;2022-11-15T01:36:50;10.52;;;3.47;;
51459;SDS011;37534;39.772;2.718;2022-11-15T01:39:17;15.10;;;4.45;;
51459;SDS011;37534;39.772;2.718;2022-11-15T01:41:43;12.05;;;3.80;;
51459;SDS011;37534;39.772;2.718;2022-11-15T01:46:56;6.20;;;3.70;;
51459;SDS011;37534;39.772;2.718;2022-11-15T01:49:24;7.78;;;3.83;;
51459;SDS011;37534;39.772;2.718;2022-11-15T01:51:53;8.77;;;4.22;;
51459;SDS011;37534;39.772;2.718;2022-11-15T01:54:20;8.07;;;3.75;;
51459;SDS011;37534;39.772;2.718;2022-11-15T01:57:04;6.88;;;3.45;;
51459;SDS011;37534;39.772;2.718;2022-11-15T01:59:34;7.00;;;3.80;;
51459;SDS011;37534;39.772;2.718;2022-11-15T02:02:01;5.55;;;3.70;;
51459;SDS011;37534;39.772;2.718;2022-11-15T02:06:53;20.42;;;4.47;;
51459;SDS011;37534;39.772;2.718;2022-11-15T02:09:19;7.80;;;3.40;;
51459;SDS011;37534;39.772;2.718;2022-11-15T02:11:45;8.68;;;4.07;;
51459;SDS011;37534;39.772;2.718;2022-11-15T02:14:12;19.52;;;3.72;;
51459;SDS011;37534;39.772;2.718;2022-11-15T02:16:45;10.80;;;3.85;;
51459;SDS011;37534;39.772;2.718;2022-11-15T02:22:04;8.10;;;3.55;;
51459;SDS011;37534;39.772;2.718;2022-11-15T02:32:43;5.72;;;3.13;;
51459;SDS011;37534;39.772;2.718;2022-11-15T02:40:47;9.30;;;3.45;;
51459;SDS011;37534;39.772;2.718;2022-11-15T02:43:28;12.35;;;3.83;;
51459;SDS011;37534;39.772;2.718;2022-11-15T02:46:24;19.65;;;3.40;;
51459;SDS011;37534;39.772;2.718;2022-11-15T02:49:13;5.35;;;3.00;;
51459;SDS011;37534;39.772;2.718;2022-11-15T02:51:40;6.80;;;3.53;;
51459;SDS011;37534;39.772;2.718;2022-11-15T02:54:15;22.52;;;4.00;;
51459;SDS011;37534;39.772;2.718;2022-11-15T02:56:46;4.72;;;3.22;;
51459;SDS011;37534;39.772;2.718;2022-11-15T03:16:15;7.88;;;3.58;;
51459;SDS011;37534;39.772;2.718;2022-11-15T03:21:37;5.97;;;3.38;;
51459;SDS011;37534;39.772;2.718;2022-11-15T03:24:05;7.97;;;3.05;;
51459;SDS011;37534;39.772;2.718;2022-11-15T03:26:33;10.07;;;3.70;;
51459;SDS011;37534;39.772;2.718;2022-11-15T03:29:15;9.75;;;2.60;;
51459;SDS011;37534;39.772;2.718;2022-11-15T03:31:46;8.23;;;3.08;;
51459;SDS011;37534;39.772;2.718;2022-11-15T03:36:54;4.18;;;3.10;;
51459;SDS011;37534;39.772;2.718;2022-11-15T03:39:20;5.97;;;2.72;;
51459;SDS011;37534;39.772;2.718;2022-11-15T03:42:03;7.07;;;3.45;;
51459;SDS011;37534;39.772;2.718;2022-11-15T03:50:06;7.35;;;3.13;;
51459;SDS011;37534;39.772;2.718;2022-11-15T03:52:38;6.30;;;3.15;;
51459;SDS011;37534;39.772;2.718;2022-11-15T03:55:06;4.82;;;3.03;;
51459;SDS011;37534;39.772;2.718;2022-11-15T03:57:35;6.07;;;2.60;;
51459;SDS011;37534;39.772;2.718;2022-11-15T04:00:01;5.63;;;2.75;;
51459;SDS011;37534;39.772;2.718;2022-11-15T04:02:27;12.13;;;2.95;;
51459;SDS011;37534;39.772;2.718;2022-11-15T04:04:53;10.05;;;3.53;;
51459;SDS011;37534;39.772;2.718;2022-11-15T04:07:19;6.13;;;3.28;;
51459;SDS011;37534;39.772;2.718;2022-11-15T04:09:44;7.88;;;3.40;;
51459;SDS011;37534;39.772;2.718;2022-11-15T04:12:29;4.65;;;3.30;;
51459;SDS011;37534;39.772;2.718;2022-11-15T04:14:59;6.75;;;2.90;;
51459;SDS011;37534;39.772;2.718;2022-11-15T04:17:37;7.18;;;2.92;;
51459;SDS011;37534;39.772;2.718;2022-11-15T04:20:06;3.28;;;2.75;;
51459;SDS011;37534;39.772;2.718;2022-11-15T04:22:53;5.78;;;4.25;;
51459;SDS011;37534;39.772;2.718;2022-11-15T04:25:38;10.20;;;5.20;;
51459;SDS011;37534;39.772;2.718;2022-11-15T04:28:04;11.80;;;3.88;;
51459;SDS011;37534;39.772;2.718;2022-11-15T04:30:29;8.55;;;3.28;;
51459;SDS011;37534;39.772;2.718;2022-11-15T04:32:55;13.68;;;3.90;;
51459;SDS011;37534;39.772;2.718;2022-11-15T04:35:20;12.98;;;3.95;;
51459;SDS011;37534;39.772;2.718;2022-11-15T04:37:46;4.25;;;3.15;;
51459;SDS011;37534;39.772;2.718;2022-11-15T04:40:11;8.25;;;3.67;;
51459;SDS011;37534;39.772;2.718;2022-11-15T04:42:37;10.98;;;3.97;;
51459;SDS011;37534;39.772;2.718;2022-11-15T04:45:02;6.57;;;3.50;;
51459;SDS011;37534;39.772;2.718;2022-11-15T04:47:28;9.05;;;3.45;;
51459;SDS011;37534;39.772;2.718;2022-11-15T04:49:54;7.88;;;3.75;;
51459;SDS011;37534;39.772;2.718;2022-11-15T04:52:20;10.52;;;3.00;;
51459;SDS011;37534;39.772;2.718;2022-11-15T04:54:45;5.43;;;2.85;;
51459;SDS011;37534;39.772;2.718;2022-11-15T04:57:11;5.72;;;3.10;;
51459;SDS011;37534;39.772;2.718;2022-11-15T04:59:36;4.93;;;2.97;;
51459;SDS011;37534;39.772;2.718;2022-11-15T05:02:02;3.78;;;2.88;;
51459;SDS011;37534;39.772;2.718;2022-11-15T05:04:27;4.93;;;2.97;;
51459;SDS011;37534;39.772;2.718;2022-11-15T05:06:53;3.13;;;2.80;;
51459;SDS011;37534;39.772;2.718;2022-11-15T05:09:19;8.70;;;2.70;;
51459;SDS011;37534;39.772;2.718;2022-11-15T05:11:45;14.00;;;8.38;;
51459;SDS011;37534;39.772;2.718;2022-11-15T05:14:10;5.53;;;3.33;;
51459;SDS011;37534;39.772;2.718;2022-11-15T05:16:36;6.93;;;4.15;;
51459;SDS011;37534;39.772;2.718;2022-11-15T05:19:02;5.70;;;3.45;;
51459;SDS011;37534;39.772;2.718;2022-11-15T05:21:28;3.55;;;2.90;;
51459;SDS011;37534;39.772;2.718;2022-11-15T05:23:53;5.72;;;3.67;;
51459;SDS011;37534;39.772;2.718;2022-11-15T05:26:19;4.32;;;2.92;;
51459;SDS011;37534;39.772;2.718;2022-11-15T05:28:45;8.30;;;3.30;;
51459;SDS011;37534;39.772;2.718;2022-11-15T05:31:11;4.07;;;3.20;;
51459;SDS011;37534;39.772;2.718;2022-11-15T05:33:41;6.82;;;3.42;;
51459;SDS011;37534;39.772;2.718;2022-11-15T05:38:52;5.75;;;3.72;;
51459;SDS011;37534;39.772;2.718;2022-11-15T05:41:19;4.60;;;3.50;;
51459;SDS011;37534;39.772;2.718;2022-11-15T05:46:16;9.45;;;3.13;;
51459;SDS011;37534;39.772;2.718;2022-11-15T05:48:43;7.82;;;3.50;;
51459;SDS011;37534;39.772;2.718;2022-11-15T05:51:13;4.57;;;2.83;;
51459;SDS011;37534;39.772;2.718;2022-11-15T05:53:41;5.53;;;3.53;;
51459;SDS011;37534;39.772;2.718;2022-11-15T05:56:06;17.52;;;3.55;;
51459;SDS011;37534;39.772;2.718;2022-11-15T05:58:34;5.60;;;2.60;;
51459;SDS011;37534;39.772;2.718;2022-11-15T06:01:01;7.93;;;3.22;;
51459;SDS011;37534;39.772;2.718;2022-11-15T06:03:27;4.80;;;2.85;;
51459;SDS011;37534;39.772;2.718;2022-11-15T06:05:53;6.25;;;2.67;;
51459;SDS011;37534;39.772;2.718;2022-11-15T06:08:18;4.55;;;3.30;;
51459;SDS011;37534;39.772;2.718;2022-11-15T06:10:44;11.27;;;5.55;;
51459;SDS011;37534;39.772;2.718;2022-11-15T06:13:09;7.00;;;4.50;;
51459;SDS011;37534;39.772;2.718;2022-11-15T06:15:35;8.35;;;5.07;;
51459;SDS011;37534;39.772;2.718;2022-11-15T06:18:00;13.10;;;4.95;;
51459;SDS011;37534;39.772;2.718;2022-11-15T06:20:27;7.85;;;4.57;;
51459;SDS011;37534;39.772;2.718;2022-11-15T06:23:00;8.65;;;4.45;;
51459;SDS011;37534;39.772;2.718;2022-11-15T06:25:27;5.07;;;3.42;;
51459;SDS011;37534;39.772;2.718;2022-11-15T06:27:54;5.05;;;2.75;;
51459;SDS011;37534;39.772;2.718;2022-11-15T06:30:20;4.80;;;3.08;;
51459;SDS011;37534;39.772;2.718;2022-11-15T06:32:47;8.90;;;3.40;;
51459;SDS011;37534;39.772;2.718;2022-11-15T06:38:10;8.43;;;3.38;;
51459;SDS011;37534;39.772;2.718;2022-11-15T06:40:36;6.32;;;3.80;;
51459;SDS011;37534;39.772;2.718;2022-11-15T06:43:03;14.25;;;3.83;;
51459;SDS011;37534;39.772;2.718;2022-11-15T06:45:29;5.22;;;3.17;;
51459;SDS011;37534;39.772;2.718;2022-11-15T06:47:55;14.02;;;4.45;;
51459;SDS011;37534;39.772;2.718;2022-11-15T06:50:22;13.88;;;6.40;;
51459;SDS011;37534;39.772;2.718;2022-11-15T06:52:47;14.23;;;3.65;;
51459;SDS011;37534;39.772;2.718;2022-11-15T06:55:13;12.15;;;7.03;;
51459;SDS011;37534;39.772;2.718;2022-11-15T06:57:45;12.05;;;6.75;;
51459;SDS011;37534;39.772;2.718;2022-11-15T07:00:12;10.38;;;6.10;;
51459;SDS011;37534;39.772;2.718;2022-11-15T07:02:38;22.60;;;14.07;;
51459;SDS011;37534;39.772;2.718;2022-11-15T07:05:04;13.30;;;5.68;;
51459;SDS011;37534;39.772;2.718;2022-11-15T07:07:30;6.60;;;4.35;;
51459;SDS011;37534;39.772;2.718;2022-11-15T07:09:55;8.27;;;4.03;;
51459;SDS011;37534;39.772;2.718;2022-11-15T07:12:21;7.22;;;5.30;;
51459;SDS011;37534;39.772;2.718;2022-11-15T07:14:46;6.32;;;4.28;;
51459;SDS011;37534;39.772;2.718;2022-11-15T07:17:12;10.50;;;5.63;;
51459;SDS011;37534;39.772;2.718;2022-11-15T07:19:37;6.90;;;4.47;;
51459;SDS011;37534;39.772;2.718;2022-11-15T07:22:03;18.42;;;4.45;;
51459;SDS011;37534;39.772;2.718;2022-11-15T07:24:28;6.25;;;4.55;;
51459;SDS011;37534;39.772;2.718;2022-11-15T07:26:54;6.07;;;4.70;;
51459;SDS011;37534;39.772;2.718;2022-11-15T07:29:19;11.75;;;4.70;;
51459;SDS011;37534;39.772;2.718;2022-11-15T07:31:45;8.30;;;5.05;;
51459;SDS011;37534;39.772;2.718;2022-11-15T07:34:10;10.32;;;5.45;;
51459;SDS011;37534;39.772;2.718;2022-11-15T07:36:36;7.72;;;5.63;;
51459;SDS011;37534;39.772;2.718;2022-11-15T07:39:01;9.13;;;4.57;;
51459;SDS011;37534;39.772;2.718;2022-11-15T07:41:27;9.52;;;3.75;;
51459;SDS011;37534;39.772;2.718;2022-11-15T07:43:52;12.50;;;8.23;;
51459;SDS011;37534;39.772;2.718;2022-11-15T07:46:18;12.55;;;9.90;;
51459;SDS011;37534;39.772;2.718;2022-11-15T07:48:43;14.18;;;8.32;;
51459;SDS011;37534;39.772;2.718;2022-11-15T07:51:12;16.50;;;7.85;;
51459;SDS011;37534;39.772;2.718;2022-11-15T07:53:41;18.40;;;7.45;;
51459;SDS011;37534;39.772;2.718;2022-11-15T07:56:07;16.52;;;8.32;;
51459;SDS011;37534;39.772;2.718;2022-11-15T07:58:33;14.38;;;5.90;;
51459;SDS011;37534;39.772;2.718;2022-11-15T08:01:01;11.68;;;6.63;;
51459;SDS011;37534;39.772;2.718;2022-11-15T08:03:31;7.75;;;4.47;;
51459;SDS011;37534;39.772;2.718;2022-11-15T08:05:58;6.43;;;4.38;;
51459;SDS011;37534;39.772;2.718;2022-11-15T08:08:24;8.05;;;5.32;;
51459;SDS011;37534;39.772;2.718;2022-11-15T08:10:49;17.40;;;6.32;;
51459;SDS011;37534;39.772;2.718;2022-11-15T08:13:15;8.23;;;4.10;;
51459;SDS011;37534;39.772;2.718;2022-11-15T08:15:41;9.80;;;5.80;;
51459;SDS011;37534;39.772;2.718;2022-11-15T08:18:12;19.75;;;5.03;;
51459;SDS011;37534;39.772;2.718;2022-11-15T08:20:39;9.00;;;4.13;;
51459;SDS011;37534;39.772;2.718;2022-11-15T08:23:06;11.25;;;4.10;;
51459;SDS011;37534;39.772;2.718;2022-11-15T08:25:33;3.72;;;2.70;;
51459;SDS011;37534;39.772;2.718;2022-11-15T08:28:00;2.88;;;2.58;;
51459;SDS011;37534;39.772;2.718;2022-11-15T08:30:29;12.70;;;4.15;;
51459;SDS011;37534;39.772;2.718;2022-11-15T08:32:56;8.48;;;3.60;;
51459;SDS011;37534;39.772;2.718;2022-11-15T08:35:23;6.43;;;3.83;;
51459;SDS011;37534;39.772;2.718;2022-11-15T08:37:49;6.60;;;3.45;;
51459;SDS011;37534;39.772;2.718;2022-11-15T08:40:15;4.28;;;3.33;;
51459;SDS011;37534;39.772;2.718;2022-11-15T08:42:41;13.23;;;4.20;;
51459;SDS011;37534;39.772;2.718;2022-11-15T08:45:07;7.35;;;3.72;;
51459;SDS011;37534;39.772;2.718;2022-11-15T08:47:33;11.63;;;6.20;;
51459;SDS011;37534;39.772;2.718;2022-11-15T08:49:59;5.40;;;4.72;;
51459;SDS011;37534;39.772;2.718;2022-11-15T08:52:25;2.25;;;1.80;;
51459;SDS011;37534;39.772;2.718;2022-11-15T08:54:51;3.78;;;2.20;;
51459;SDS011;37534;39.772;2.718;2022-11-15T08:57:16;2.42;;;1.88;;
51459;SDS011;37534;39.772;2.718;2022-11-15T08:59:42;4.13;;;2.20;;
51459;SDS011;37534;39.772;2.718;2022-11-15T09:02:12;7.47;;;1.88;;
51459;SDS011;37534;39.772;2.718;2022-11-15T09:04:40;3.33;;;2.60;;
51459;SDS011;37534;39.772;2.718;2022-11-15T09:07:09;3.47;;;1.90;;
51459;SDS011;37534;39.772;2.718;2022-11-15T09:09:35;9.95;;;6.28;;
51459;SDS011;37534;39.772;2.718;2022-11-15T09:12:01;20.10;;;13.18;;
51459;SDS011;37534;39.772;2.718;2022-11-15T09:14:27;18.75;;;10.73;;
51459;SDS011;37534;39.772;2.718;2022-11-15T09:16:53;8.18;;;4.13;;
51459;SDS011;37534;39.772;2.718;2022-11-15T09:19:18;10.43;;;6.65;;
51459;SDS011;37534;39.772;2.718;2022-11-15T09:21:44;20.00;;;11.38;;
51459;SDS011;37534;39.772;2.718;2022-11-15T09:24:09;15.75;;;5.35;;
51459;SDS011;37534;39.772;2.718;2022-11-15T09:26:35;9.13;;;3.50;;
51459;SDS011;37534;39.772;2.718;2022-11-15T09:29:00;7.78;;;4.45;;
51459;SDS011;37534;39.772;2.718;2022-11-15T09:31:27;11.73;;;5.30;;
51459;SDS011;37534;39.772;2.718;2022-11-15T09:33:52;14.85;;;9.77;;
51459;SDS011;37534;39.772;2.718;2022-11-15T09:36:18;24.10;;;14.23;;
51459;SDS011;37534;39.772;2.718;2022-11-15T09:38:44;22.27;;;12.50;;
51459;SDS011;37534;39.772;2.718;2022-11-15T09:49:23;5.07;;;3.17;;
51459;SDS011;37534;39.772;2.718;2022-11-15T09:51:50;11.48;;;7.15;;
51459;SDS011;37534;39.772;2.718;2022-11-15T09:56:46;1.52;;;1.42;;
51459;SDS011;37534;39.772;2.718;2022-11-15T10:02:09;7.78;;;2.67;;
51459;SDS011;37534;39.772;2.718;2022-11-15T10:04:38;3.97;;;2.05;;
51459;SDS011;37534;39.772;2.718;2022-11-15T10:09:54;3.08;;;1.67;;
51459;SDS011;37534;39.772;2.718;2022-11-15T10:12:24;4.53;;;2.35;;
51459;SDS011;37534;39.772;2.718;2022-11-15T10:14:54;5.60;;;2.60;;
51459;SDS011;37534;39.772;2.718;2022-11-15T10:20:28;2.63;;;1.58;;
51459;SDS011;37534;39.772;2.718;2022-11-15T10:25:24;2.08;;;1.40;;
51459;SDS011;37534;39.772;2.718;2022-11-15T10:27:56;2.42;;;1.13;;
51459;SDS011;37534;39.772;2.718;2022-11-15T10:30:38;1.67;;;1.05;;
51459;SDS011;37534;39.772;2.718;2022-11-15T10:33:14;4.60;;;1.30;;
51459;SDS011;37534;39.772;2.718;2022-11-15T10:36:14;2.40;;;1.00;;
51459;SDS011;37534;39.772;2.718;2022-11-15T10:41:12;2.70;;;1.30;;
51459;SDS011;37534;39.772;2.718;2022-11-15T10:43:38;5.18;;;1.70;;
51459;SDS011;37534;39.772;2.718;2022-11-15T10:46:23;3.70;;;1.30;;
51459;SDS011;37534;39.772;2.718;2022-11-15T10:48:49;3.95;;;1.38;;
51459;SDS011;37534;39.772;2.718;2022-11-15T10:51:22;2.65;;;1.27;;
51459;SDS011;37534;39.772;2.718;2022-11-15T10:53:56;2.55;;;1.50;;
51459;SDS011;37534;39.772;2.718;2022-11-15T10:56:25;2.35;;;1.30;;
51459;SDS011;37534;39.772;2.718;2022-11-15T10:59:01;2.50;;;1.20;;
51459;SDS011;37534;39.772;2.718;2022-11-15T11:01:27;1.10;;;1.10;;
51459;SDS011;37534;39.772;2.718;2022-11-15T11:06:54;1.42;;;1.10;;
51459;SDS011;37534;39.772;2.718;2022-11-15T11:12:02;3.40;;;1.30;;
51459;SDS011;37534;39.772;2.718;2022-11-15T11:14:30;3.10;;;1.02;;
51459;SDS011;37534;39.772;2.718;2022-11-15T11:25:35;1.38;;;1.00;;
51459;SDS011;37534;39.772;2.718;2022-11-15T11:30:24;1.40;;;1.00;;
51459;SDS011;37534;39.772;2.718;2022-11-15T11:36:26;0.93;;;0.50;;
51459;SDS011;37534;39.772;2.718;2022-11-15T11:41:53;1.20;;;1.10;;
51459;SDS011;37534;39.772;2.718;2022-11-15T11:44:33;3.47;;;1.48;;
51459;SDS011;37534;39.772;2.718;2022-11-15T11:47:09;2.08;;;1.05;;
51459;SDS011;37534;39.772;2.718;2022-11-15T12:00:22;1.45;;;1.08;;
51459;SDS011;37534;39.772;2.718;2022-11-15T12:05:50;3.83;;;1.80;;
51459;SDS011;37534;39.772;2.718;2022-11-15T12:11:22;2.58;;;1.00;;
51459;SDS011;37534;39.772;2.718;2022-11-15T12:13:56;5.35;;;1.55;;
51459;SDS011;37534;39.772;2.718;2022-11-15T12:16:29;2.78;;;1.10;;
51459;SDS011;37534;39.772;2.718;2022-11-15T12:18:59;2.20;;;1.98;;
51459;SDS011;37534;39.772;2.718;2022-11-15T12:24:02;7.38;;;2.08;;
51459;SDS011;37534;39.772;2.718;2022-11-15T12:26:37;6.32;;;1.25;;
51459;SDS011;37534;39.772;2.718;2022-11-15T12:29:18;3.35;;;1.60;;
51459;SDS011;37534;39.772;2.718;2022-11-15T12:32:05;5.13;;;1.25;;
51459;SDS011;37534;39.772;2.718;2022-11-15T12:34:56;1.55;;;1.17;;
51459;SDS011;37534;39.772;2.718;2022-11-15T12:37:32;5.00;;;1.90;;
51459;SDS011;37534;39.772;2.718;2022-11-15T12:45:36;1.77;;;1.63;;
51459;SDS011;37534;39.772;2.718;2022-11-15T12:58:58;1.67;;;1.55;;
51459;SDS011;37534;39.772;2.718;2022-11-15T13:04:38;6.45;;;1.40;;
51459;SDS011;37534;39.772;2.718;2022-11-15T13:06:48;3.10;;;1.80;;
51459;SDS011;37534;39.772;2.718;2022-11-15T13:12:03;2.00;;;1.40;;
51459;SDS011;37534;39.772;2.718;2022-11-15T13:14:45;1.45;;;1.33;;
51459;SDS011;37534;39.772;2.718;2022-11-15T13:19:48;3.22;;;1.90;;
51459;SDS011;37534;39.772;2.718;2022-11-15T13:22:40;3.15;;;2.10;;
51459;SDS011;37534;39.772;2.718;2022-11-15T13:28:01;7.38;;;1.70;;
51459;SDS011;37534;39.772;2.718;2022-11-15T13:30:39;4.80;;;1.70;;
51459;SDS011;37534;39.772;2.718;2022-11-15T13:36:12;1.95;;;1.42;;
51459;SDS011;37534;39.772;2.718;2022-11-15T13:38:40;4.55;;;1.80;;
51459;SDS011;37534;39.772;2.718;2022-11-15T13:41:23;2.47;;;1.50;;
51459;SDS011;37534;39.772;2.718;2022-11-15T13:43:51;3.33;;;1.45;;
51459;SDS011;37534;39.772;2.718;2022-11-15T13:48:46;4.28;;;2.30;;
51459;SDS011;37534;39.772;2.718;2022-11-15T13:51:18;2.78;;;1.67;;
51459;SDS011;37534;39.772;2.718;2022-11-15T13:56:53;2.40;;;1.48;;
51459;SDS011;37534;39.772;2.718;2022-11-15T13:59:29;4.50;;;2.70;;
51459;SDS011;37534;39.772;2.718;2022-11-15T14:04:26;9.27;;;1.75;;
51459;SDS011;37534;39.772;2.718;2022-11-15T14:06:59;2.15;;;1.52;;
51459;SDS011;37534;39.772;2.718;2022-11-15T14:12:00;4.45;;;2.10;;
51459;SDS011;37534;39.772;2.718;2022-11-15T14:14:28;2.00;;;1.80;;
51459;SDS011;37534;39.772;2.718;2022-11-15T14:16:56;2.47;;;1.50;;
51459;SDS011;37534;39.772;2.718;2022-11-15T14:24:34;2.45;;;1.17;;
51459;SDS011;37534;39.772;2.718;2022-11-15T14:27:16;7.05;;;1.67;;
51459;SDS011;37534;39.772;2.718;2022-11-15T14:29:46;2.70;;;1.75;;
51459;SDS011;37534;39.772;2.718;2022-11-15T14:34:46;2.80;;;1.42;;
51459;SDS011;37534;39.772;2.718;2022-11-15T14:37:35;10.43;;;2.05;;
51459;SDS011;37534;39.772;2.718;2022-11-15T14:40:01;3.55;;;2.22;;
51459;SDS011;37534;39.772;2.718;2022-11-15T14:42:28;3.40;;;1.35;;
51459;SDS011;37534;39.772;2.718;2022-11-15T14:44:57;2.78;;;1.63;;
51459;SDS011;37534;39.772;2.718;2022-11-15T14:47:24;3.13;;;1.77;;
51459;SDS011;37534;39.772;2.718;2022-11-15T14:49:51;6.10;;;1.75;;
51459;SDS011;37534;39.772;2.718;2022-11-15T14:52:24;1.42;;;1.33;;
51459;SDS011;37534;39.772;2.718;2022-11-15T14:54:53;1.70;;;1.50;;
51459;SDS011;37534;39.772;2.718;2022-11-15T14:57:19;4.10;;;2.47;;
51459;SDS011;37534;39.772;2.718;2022-11-15T14:59:45;1.33;;;1.05;;
51459;SDS011;37534;39.772;2.718;2022-11-15T15:02:18;1.60;;;1.05;;
51459;SDS011;37534;39.772;2.718;2022-11-15T15:04:45;1.85;;;1.10;;
51459;SDS011;37534;39.772;2.718;2022-11-15T15:07:11;2.35;;;1.00;;
51459;SDS011;37534;39.772;2.718;2022-11-15T15:09:37;4.22;;;1.52;;
51459;SDS011;37534;39.772;2.718;2022-11-15T15:12:03;0.73;;;0.60;;
51459;SDS011;37534;39.772;2.718;2022-11-15T15:14:31;3.42;;;1.10;;
51459;SDS011;37534;39.772;2.718;2022-11-15T15:16:57;2.65;;;1.20;;
51459;SDS011;37534;39.772;2.718;2022-11-15T15:19:25;0.88;;;0.88;;
51459;SDS011;37534;39.772;2.718;2022-11-15T15:21:50;1.42;;;0.95;;
51459;SDS011;37534;39.772;2.718;2022-11-15T15:24:16;1.05;;;0.90;;
51459;SDS011;37534;39.772;2.718;2022-11-15T15:26:41;7.70;;;1.27;;
51459;SDS011;37534;39.772;2.718;2022-11-15T15:29:08;1.25;;;0.95;;
51459;SDS011;37534;39.772;2.718;2022-11-15T15:31:34;3.22;;;0.85;;
51459;SDS011;37534;39.772;2.718;2022-11-15T15:34:01;0.90;;;0.90;;
51459;SDS011;37534;39.772;2.718;2022-11-15T15:36:27;3.90;;;1.17;;
51459;SDS011;37534;39.772;2.718;2022-11-15T15:38:52;1.85;;;1.20;;
51459;SDS011;37534;39.772;2.718;2022-11-15T15:41:18;1.30;;;0.93;;
51459;SDS011;37534;39.772;2.718;2022-11-15T15:43:44;1.27;;;0.75;;
51459;SDS011;37534;39.772;2.718;2022-11-15T15:46:11;1.85;;;1.75;;
51459;SDS011;37534;39.772;2.718;2022-11-15T15:48:40;2.50;;;1.05;;
51459;SDS011;37534;39.772;2.718;2022-11-15T15:51:06;5.88;;;1.23;;
51459;SDS011;37534;39.772;2.718;2022-11-15T15:53:32;3.40;;;1.00;;
51459;SDS011;37534;39.772;2.718;2022-11-15T15:55:58;1.55;;;1.45;;
51459;SDS011;37534;39.772;2.718;2022-11-15T15:58:23;1.00;;;1.00;;
51459;SDS011;37534;39.772;2.718;2022-11-15T16:00:49;2.45;;;1.70;;
51459;SDS011;37534;39.772;2.718;2022-11-15T16:03:14;2.65;;;0.95;;
51459;SDS011;37534;39.772;2.718;2022-11-15T16:05:40;1.73;;;1.30;;
51459;SDS011;37534;39.772;2.718;2022-11-15T16:08:05;2.08;;;1.60;;
51459;SDS011;37534;39.772;2.718;2022-11-15T16:10:59;5.15;;;1.60;;
51459;SDS011;37534;39.772;2.718;2022-11-15T16:13:28;2.08;;;1.30;;
51459;SDS011;37534;39.772;2.718;2022-11-15T16:15:54;2.10;;;1.45;;
51459;SDS011;37534;39.772;2.718;2022-11-15T16:18:20;1.42;;;1.00;;
51459;SDS011;37534;39.772;2.718;2022-11-15T16:20:46;2.10;;;1.88;;
51459;SDS011;37534;39.772;2.718;2022-11-15T16:23:15;2.42;;;0.95;;
51459;SDS011;37534;39.772;2.718;2022-11-15T16:25:47;1.02;;;0.75;;
51459;SDS011;37534;39.772;2.718;2022-11-15T16:28:18;1.83;;;1.13;;
51459;SDS011;37534;39.772;2.718;2022-11-15T16:30:45;3.63;;;1.40;;
51459;SDS011;37534;39.772;2.718;2022-11-15T16:33:11;2.58;;;1.70;;
51459;SDS011;37534;39.772;2.718;2022-11-15T16:35:37;2.15;;;1.40;;
51459;SDS011;37534;39.772;2.718;2022-11-15T16:38:02;5.97;;;1.38;;
51459;SDS011;37534;39.772;2.718;2022-11-15T16:40:29;1.92;;;1.15;;
51459;SDS011;37534;39.772;2.718;2022-11-15T16:42:58;0.68;;;0.68;;
51459;SDS011;37534;39.772;2.718;2022-11-15T16:45:26;2.72;;;1.23;;
51459;SDS011;37534;39.772;2.718;2022-11-15T16:47:55;2.42;;;1.20;;
51459;SDS011;37534;39.772;2.718;2022-11-15T16:50:22;1.00;;;0.57;;
51459;SDS011;37534;39.772;2.718;2022-11-15T16:52:53;1.27;;;1.20;;
51459;SDS011;37534;39.772;2.718;2022-11-15T16:55:21;2.10;;;1.23;;
51459;SDS011;37534;39.772;2.718;2022-11-15T16:57:48;2.67;;;1.85;;
51459;SDS011;37534;39.772;2.718;2022-11-15T17:00:15;3.50;;;2.25;;
51459;SDS011;37534;39.772;2.718;2022-11-15T17:02:43;2.10;;;1.13;;
51459;SDS011;37534;39.772;2.718;2022-11-15T17:05:13;2.95;;;1.30;;
51459;SDS011;37534;39.772;2.718;2022-11-15T17:07:40;2.15;;;1.33;;
51459;SDS011;37534;39.772;2.718;2022-11-15T17:10:06;1.42;;;0.90;;
51459;SDS011;37534;39.772;2.718;2022-11-15T17:12:34;7.55;;;1.70;;
51459;SDS011;37534;39.772;2.718;2022-11-15T17:14:59;1.63;;;1.20;;
51459;SDS011;37534;39.772;2.718;2022-11-15T17:17:25;1.52;;;1.13;;
51459;SDS011;37534;39.772;2.718;2022-11-15T17:19:51;1.60;;;0.98;;
51459;SDS011;37534;39.772;2.718;2022-11-15T17:22:17;3.20;;;1.50;;
51459;SDS011;37534;39.772;2.718;2022-11-15T17:24:43;1.58;;;1.40;;
51459;SDS011;37534;39.772;2.718;2022-11-15T17:27:09;4.55;;;1.42;;
51459;SDS011;37534;39.772;2.718;2022-11-15T17:29:34;2.78;;;2.17;;
51459;SDS011;37534;39.772;2.718;2022-11-15T17:32:00;2.47;;;1.48;;
51459;SDS011;37534;39.772;2.718;2022-11-15T17:34:26;0.90;;;0.90;;
51459;SDS011;37534;39.772;2.718;2022-11-15T17:36:51;2.42;;;1.92;;
51459;SDS011;37534;39.772;2.718;2022-11-15T17:39:16;2.72;;;1.35;;
51459;SDS011;37534;39.772;2.718;2022-11-15T17:41:44;4.25;;;0.98;;
51459;SDS011;37534;39.772;2.718;2022-11-15T19:07:48;1.00;;;1.00;;
51459;SDS011;37534;39.772;2.718;2022-11-15T19:10:14;2.35;;;0.80;;